createdAt,value
2023-08-26T00:02:14.002Z,92.92
2023-08-26T00:04:40.744Z,92.71
2023-08-26T00:07:07.728Z,92.61
2023-08-26T00:09:34.513Z,92.50
2023-08-26T00:12:01.133Z,92.58
2023-08-26T00:14:27.724Z,92.50
2023-08-26T00:16:54.295Z,92.45
2023-08-26T00:19:21.681Z,92.50
2023-08-26T00:21:49.104Z,92.83
2023-08-26T00:24:15.886Z,92.93
2023-08-26T00:26:42.480Z,93.08
2023-08-26T00:29:09.104Z,93.15
2023-08-26T00:31:35.974Z,93.35
2023-08-26T00:34:04.780Z,93.44
2023-08-26T00:36:32.090Z,93.80
2023-08-26T00:38:59.314Z,93.82
2023-08-26T00:41:26.351Z,93.89
2023-08-26T00:43:52.991Z,93.77
2023-08-26T00:46:19.877Z,94.12
2023-08-26T00:48:46.559Z,94.11
2023-08-26T00:51:13.183Z,94.42
2023-08-26T00:53:39.937Z,94.64
2023-08-26T00:56:06.732Z,94.60
2023-08-26T00:58:33.404Z,94.71
2023-08-26T01:01:00.157Z,94.78
2023-08-26T01:03:26.934Z,95.02
2023-08-26T01:05:53.664Z,95.13
2023-08-26T01:08:20.926Z,95.19
2023-08-26T01:11:25.081Z,95.29
2023-08-26T01:13:59.420Z,95.56
2023-08-26T01:16:27.203Z,95.59
2023-08-26T01:18:53.943Z,95.54
2023-08-26T01:21:25.367Z,95.66
2023-08-26T01:23:53.538Z,95.69
2023-08-26T01:26:20.150Z,96.22
2023-08-26T01:28:47.151Z,95.97
2023-08-26T01:31:14.631Z,96.24
2023-08-26T01:34:04.706Z,96.26
2023-08-26T01:36:34.345Z,96.10
2023-08-26T01:39:02.308Z,96.04
2023-08-26T01:41:30.915Z,96.13
2023-08-26T01:43:59.094Z,96.26
2023-08-26T01:46:38.390Z,95.88
2023-08-26T01:49:06.056Z,96.05
2023-08-26T01:51:33.366Z,96.25
2023-08-26T01:54:00.155Z,96.21
2023-08-26T01:56:26.766Z,96.39
2023-08-26T01:58:54.597Z,96.73
2023-08-26T02:01:21.236Z,96.54
2023-08-26T02:03:48.054Z,96.33
2023-08-26T02:06:14.739Z,96.43
2023-08-26T02:08:41.654Z,96.24
2023-08-26T02:11:08.347Z,96.30
2023-08-26T02:13:34.971Z,96.31
2023-08-26T02:16:05.279Z,96.34
2023-08-26T02:18:32.146Z,96.47
2023-08-26T02:20:58.686Z,96.46
2023-08-26T02:23:26.979Z,96.69
2023-08-26T02:25:53.684Z,96.60
2023-08-26T02:28:20.432Z,96.38
2023-08-26T02:30:47.248Z,96.46
2023-08-26T02:33:13.910Z,96.55
2023-08-26T02:35:46.691Z,96.74
2023-08-26T02:38:14.100Z,96.73
2023-08-26T02:40:40.728Z,96.93
2023-08-26T02:43:07.333Z,96.84
2023-08-26T02:45:34.064Z,96.85
2023-08-26T02:48:00.730Z,96.77
2023-08-26T02:50:27.376Z,97.02
2023-08-26T02:52:54.020Z,97.17
2023-08-26T02:55:20.580Z,97.20
2023-08-26T02:57:47.170Z,97.23
2023-08-26T03:00:14.917Z,97.16
2023-08-26T03:02:41.753Z,97.10
2023-08-26T03:05:08.809Z,97.13
2023-08-26T03:07:35.456Z,97.29
2023-08-26T03:10:02.082Z,97.25
2023-08-26T03:12:28.694Z,96.94
2023-08-26T03:14:55.345Z,97.13
2023-08-26T03:17:22.023Z,97.28
2023-08-26T03:19:48.685Z,97.38
2023-08-26T03:22:15.367Z,97.40
2023-08-26T03:24:42.006Z,97.47
2023-08-26T03:27:08.633Z,97.43
2023-08-26T03:29:35.576Z,97.48
2023-08-26T03:32:02.322Z,97.24
2023-08-26T03:34:29.004Z,97.41
2023-08-26T03:36:55.678Z,97.65
2023-08-26T03:39:22.326Z,97.52
2023-08-26T03:41:48.904Z,97.36
2023-08-26T03:44:15.525Z,97.41
2023-08-26T03:46:42.067Z,97.31
2023-08-26T03:49:08.706Z,97.32
2023-08-26T03:51:35.334Z,97.36
2023-08-26T03:54:01.928Z,97.30
2023-08-26T03:56:29.362Z,97.32
2023-08-26T03:58:58.318Z,97.44
2023-08-26T04:01:25.233Z,97.65
2023-08-26T04:03:53.331Z,97.44
2023-08-26T04:06:20.434Z,97.02
2023-08-26T04:08:47.169Z,96.95
2023-08-26T04:11:16.135Z,96.87
2023-08-26T04:13:42.883Z,97.03
2023-08-26T04:16:09.743Z,97.01
2023-08-26T04:18:36.409Z,97.05
2023-08-26T04:21:03.088Z,96.76
2023-08-26T04:23:31.348Z,96.73
2023-08-26T04:26:09.660Z,96.65
2023-08-26T04:28:36.328Z,96.85
2023-08-26T04:31:03.094Z,96.74
2023-08-26T04:33:30.494Z,96.42
2023-08-26T04:35:57.195Z,96.63
2023-08-26T04:38:23.716Z,96.60
2023-08-26T04:40:50.355Z,96.47
2023-08-26T04:43:16.973Z,95.81
2023-08-26T04:45:44.939Z,95.79
2023-08-26T04:48:11.867Z,95.59
2023-08-26T04:50:38.662Z,95.61
2023-08-26T04:53:05.422Z,95.29
2023-08-26T04:55:34.213Z,95.06
2023-08-26T04:58:01.141Z,95.09
2023-08-26T05:00:28.049Z,95.02
2023-08-26T05:02:55.801Z,94.72
2023-08-26T05:05:22.507Z,94.70
2023-08-26T05:07:49.189Z,94.94
2023-08-26T05:10:15.873Z,94.84
2023-08-26T05:12:42.481Z,95.15
2023-08-26T05:15:09.502Z,95.54
2023-08-26T05:17:36.221Z,95.37
2023-08-26T05:20:03.739Z,95.50
2023-08-26T05:22:30.394Z,95.78
2023-08-26T05:24:57.010Z,95.69
2023-08-26T05:27:24.058Z,95.78
2023-08-26T05:29:51.156Z,96.08
2023-08-26T05:32:18.997Z,96.39
2023-08-26T05:34:45.642Z,96.45
2023-08-26T05:37:12.303Z,96.48
2023-08-26T05:39:38.902Z,96.55
2023-08-26T05:42:05.916Z,96.38
2023-08-26T05:44:32.606Z,96.78
2023-08-26T05:46:59.296Z,96.47
2023-08-26T05:49:25.987Z,96.21
2023-08-26T05:51:52.573Z,95.93
2023-08-26T05:54:19.298Z,95.90
2023-08-26T05:56:46.005Z,95.92
2023-08-26T05:59:12.635Z,96.12
2023-08-26T06:01:39.355Z,96.02
2023-08-26T06:04:06.881Z,95.78
2023-08-26T06:06:34.252Z,95.39
2023-08-26T06:09:00.850Z,95.51
2023-08-26T06:11:27.538Z,95.66
2023-08-26T06:13:54.183Z,95.24
2023-08-26T06:16:21.595Z,95.34
2023-08-26T06:18:49.013Z,95.23
2023-08-26T06:21:16.245Z,95.06
2023-08-26T06:23:43.217Z,94.84
2023-08-26T06:26:10.020Z,94.70
2023-08-26T06:28:37.002Z,94.38
2023-08-26T06:31:03.646Z,94.28
2023-08-26T06:33:30.331Z,94.23
2023-08-26T06:35:56.916Z,94.65
2023-08-26T06:38:23.716Z,94.61
2023-08-26T06:40:57.631Z,94.86
2023-08-26T06:43:25.008Z,95.05
2023-08-26T06:45:52.120Z,95.46
2023-08-26T06:48:18.841Z,95.52
2023-08-26T06:50:51.954Z,95.38
2023-08-26T06:53:22.989Z,95.52
2023-08-26T06:55:50.901Z,95.89
2023-08-26T06:58:17.897Z,96.18
2023-08-26T07:00:45.029Z,96.30
2023-08-26T07:03:12.171Z,96.14
2023-08-26T07:05:42.791Z,95.74
2023-08-26T07:08:09.772Z,95.58
2023-08-26T07:10:36.474Z,95.79
2023-08-26T07:13:03.153Z,95.89
2023-08-26T07:15:30.723Z,95.78
2023-08-26T07:17:57.688Z,96.09
2023-08-26T07:20:25.749Z,96.03
2023-08-26T07:22:52.477Z,96.38
2023-08-26T07:25:19.244Z,95.90
2023-08-26T07:27:46.700Z,96.09
2023-08-26T07:30:14.879Z,96.39
2023-08-26T07:32:42.711Z,95.62
2023-08-26T07:35:10.841Z,95.83
2023-08-26T07:37:37.984Z,95.80
2023-08-26T07:40:08.749Z,95.70
2023-08-26T07:42:36.650Z,95.39
2023-08-26T07:45:04.589Z,94.87
2023-08-26T07:50:00.857Z,93.87
2023-08-26T07:52:29.718Z,94.03
2023-08-26T07:54:56.916Z,93.60
2023-08-26T07:57:24.343Z,92.42
2023-08-26T07:59:51.011Z,92.75
2023-08-26T08:02:19.089Z,92.68
2023-08-26T08:04:45.965Z,90.29
2023-08-26T08:07:12.754Z,91.49
2023-08-26T08:09:40.627Z,90.77
2023-08-26T08:12:09.448Z,90.64
2023-08-26T08:14:36.354Z,91.43
2023-08-26T08:17:04.282Z,89.65
2023-08-26T08:19:30.941Z,86.67
2023-08-26T08:21:57.587Z,87.45
2023-08-26T08:24:24.466Z,86.91
2023-08-26T08:26:51.239Z,87.83
2023-08-26T08:29:17.936Z,86.65
2023-08-26T08:31:44.782Z,84.23
2023-08-26T08:34:11.519Z,82.72
2023-08-26T08:36:38.118Z,80.86
2023-08-26T08:39:04.863Z,79.10
2023-08-26T08:41:35.438Z,80.62
2023-08-26T08:44:09.633Z,79.75
2023-08-26T08:46:37.296Z,81.63
2023-08-26T08:49:04.679Z,80.72
2023-08-26T08:51:31.845Z,82.29
2023-08-26T08:53:59.017Z,82.21
2023-08-26T08:56:26.616Z,80.90
2023-08-26T08:58:54.575Z,78.44
2023-08-26T09:01:24.592Z,74.12
2023-08-26T09:03:51.193Z,72.50
2023-08-26T09:06:21.060Z,71.98
2023-08-26T09:08:48.918Z,76.47
2023-08-26T09:11:15.762Z,78.20
2023-08-26T09:13:44.170Z,78.69
2023-08-26T09:16:11.334Z,79.53
2023-08-26T09:18:42.590Z,79.13
2023-08-26T09:21:10.952Z,77.38
2023-08-26T09:23:44.835Z,77.69
2023-08-26T09:26:12.210Z,78.80
2023-08-26T09:28:46.794Z,79.91
2023-08-26T09:31:14.277Z,81.27
2023-08-26T09:33:42.313Z,81.79
2023-08-26T09:38:48.330Z,78.07
2023-08-26T09:41:20.971Z,76.32
2023-08-26T09:43:48.564Z,73.66
2023-08-26T09:46:22.344Z,71.80
2023-08-26T09:48:50.138Z,70.88
2023-08-26T09:51:30.944Z,69.11
2023-08-26T09:53:58.696Z,66.84
2023-08-26T09:56:26.731Z,69.07
2023-08-26T09:58:54.627Z,70.65
2023-08-26T10:01:22.645Z,71.20
2023-08-26T10:04:05.679Z,68.86
2023-08-26T10:06:37.298Z,66.91
2023-08-26T10:09:38.811Z,65.77
2023-08-26T10:12:10.366Z,62.51
2023-08-26T10:14:40.037Z,62.34
2023-08-26T10:17:09.094Z,63.52
2023-08-26T10:19:36.656Z,64.46
2023-08-26T10:22:05.692Z,64.07
2023-08-26T10:24:32.349Z,65.32
2023-08-26T10:26:59.005Z,60.80
2023-08-26T10:29:26.507Z,60.96
2023-08-26T10:31:53.200Z,61.17
2023-08-26T10:34:19.876Z,61.87
2023-08-26T10:36:48.635Z,62.88
2023-08-26T10:39:17.437Z,62.57
2023-08-26T10:42:11.980Z,61.00
2023-08-26T10:44:43.156Z,63.99
2023-08-26T10:47:10.931Z,64.05
2023-08-26T10:49:38.092Z,66.91
2023-08-26T10:52:09.972Z,66.68
2023-08-26T10:54:37.236Z,67.18
2023-08-26T10:57:08.759Z,67.81
2023-08-26T10:59:37.003Z,69.07
2023-08-26T11:02:08.502Z,69.63
2023-08-26T11:04:45.561Z,67.36
2023-08-26T11:07:19.530Z,67.37
2023-08-26T11:09:46.679Z,67.00
2023-08-26T11:12:29.041Z,66.69
2023-08-26T11:15:06.837Z,67.42
2023-08-26T11:17:42.861Z,67.68
2023-08-26T11:20:18.895Z,62.93
2023-08-26T11:22:46.400Z,61.43
2023-08-26T11:25:17.030Z,61.52
2023-08-26T11:27:43.953Z,62.34
2023-08-26T11:30:12.010Z,63.25
2023-08-26T11:32:40.080Z,63.34
2023-08-26T11:35:08.967Z,62.02
2023-08-26T11:37:47.408Z,64.12
2023-08-26T11:40:15.197Z,61.97
2023-08-26T11:42:42.173Z,62.49
2023-08-26T11:45:14.841Z,62.94
2023-08-26T11:47:41.616Z,65.60
2023-08-26T11:50:12.416Z,66.40
2023-08-26T11:52:39.839Z,64.38
2023-08-26T11:55:08.588Z,64.20
2023-08-26T11:57:37.448Z,64.05
2023-08-26T12:00:12.543Z,63.57
2023-08-26T12:02:40.120Z,62.81
2023-08-26T12:05:07.118Z,58.96
2023-08-26T12:07:59.056Z,57.36
2023-08-26T12:10:27.005Z,54.94
2023-08-26T12:13:03.595Z,53.81
2023-08-26T12:15:30.366Z,54.63
2023-08-26T12:17:57.416Z,54.52
2023-08-26T12:20:32.627Z,53.59
2023-08-26T12:23:01.286Z,53.79
2023-08-26T12:25:32.005Z,52.65
2023-08-26T12:28:15.285Z,52.43
2023-08-26T12:30:44.502Z,52.02
2023-08-26T12:33:23.464Z,52.43
2023-08-26T12:35:55.851Z,50.80
2023-08-26T12:38:24.074Z,48.68
2023-08-26T12:40:51.345Z,48.99
2023-08-26T12:43:21.939Z,49.00
2023-08-26T12:45:50.435Z,48.97
2023-08-26T12:48:31.114Z,49.36
2023-08-26T12:51:04.844Z,49.59
2023-08-26T12:53:31.385Z,49.45
2023-08-26T12:55:59.275Z,50.49
2023-08-26T12:58:26.757Z,51.11
2023-08-26T13:00:53.906Z,51.92
2023-08-26T13:03:20.754Z,51.65
2023-08-26T13:05:49.783Z,52.31
2023-08-26T13:08:16.558Z,51.62
2023-08-26T13:10:43.209Z,51.27
2023-08-26T13:13:09.878Z,54.89
2023-08-26T13:15:42.428Z,53.70
2023-08-26T13:18:10.343Z,52.43
2023-08-26T13:20:39.634Z,52.03
2023-08-26T13:23:06.422Z,53.20
2023-08-26T13:25:33.049Z,55.82
2023-08-26T13:27:59.910Z,56.52
2023-08-26T13:30:26.652Z,56.38
2023-08-26T13:32:53.550Z,58.43
2023-08-26T13:35:20.187Z,57.24
2023-08-26T13:37:46.874Z,56.75
2023-08-26T13:40:14.293Z,55.81
2023-08-26T13:42:42.029Z,56.48
2023-08-26T13:45:09.303Z,57.14
2023-08-26T13:47:36.098Z,56.91
2023-08-26T13:50:02.819Z,56.41
2023-08-26T13:52:29.811Z,56.78
2023-08-26T13:54:56.414Z,56.88
2023-08-26T13:57:23.116Z,56.34
2023-08-26T13:59:49.726Z,56.52
2023-08-26T14:02:17.030Z,56.24
2023-08-26T14:04:44.520Z,55.29
2023-08-26T14:07:11.168Z,54.14
2023-08-26T14:09:37.890Z,53.40
2023-08-26T14:12:05.505Z,53.99
2023-08-26T14:14:32.180Z,54.85
2023-08-26T14:16:59.081Z,53.35
2023-08-26T14:19:25.834Z,53.06
2023-08-26T14:21:52.499Z,53.54
2023-08-26T14:24:19.121Z,54.11
2023-08-26T14:26:46.730Z,54.53
2023-08-26T14:29:13.546Z,52.96
2023-08-26T14:31:40.319Z,54.20
2023-08-26T14:34:06.869Z,53.84
2023-08-26T14:36:33.521Z,54.62
2023-08-26T14:39:02.472Z,54.07
2023-08-26T14:41:29.309Z,55.32
2023-08-26T14:43:56.027Z,53.86
2023-08-26T14:46:22.773Z,53.53
2023-08-26T14:48:49.409Z,53.32
2023-08-26T14:51:16.052Z,54.30
2023-08-26T14:53:42.748Z,55.21
2023-08-26T14:56:10.213Z,54.94
2023-08-26T14:58:37.152Z,54.96
2023-08-26T15:01:03.790Z,54.61
2023-08-26T15:03:30.806Z,56.14
2023-08-26T15:05:59.061Z,53.90
2023-08-26T15:08:26.076Z,53.73
2023-08-26T15:10:53.067Z,54.82
2023-08-26T15:13:23.329Z,54.29
2023-08-26T15:15:53.298Z,54.37
2023-08-26T15:18:20.614Z,55.69
2023-08-26T15:20:49.669Z,53.65
2023-08-26T15:23:17.323Z,54.23
2023-08-26T15:25:47.842Z,56.39
2023-08-26T15:28:15.756Z,56.85
2023-08-26T15:30:54.259Z,55.89
2023-08-26T15:33:21.125Z,54.78
2023-08-26T15:35:54.275Z,56.35
2023-08-26T15:38:21.474Z,55.21
2023-08-26T15:40:55.492Z,55.99
2023-08-26T15:43:22.224Z,56.22
2023-08-26T15:45:48.943Z,56.36
2023-08-26T15:48:15.922Z,55.75
2023-08-26T15:50:43.135Z,60.21
2023-08-26T15:53:14.236Z,60.04
2023-08-26T15:55:42.126Z,55.58
2023-08-26T15:58:08.753Z,56.12
2023-08-26T16:00:35.578Z,55.59
2023-08-26T16:03:02.406Z,57.09
2023-08-26T16:05:29.152Z,53.91
2023-08-26T16:07:55.985Z,54.71
2023-08-26T16:10:23.396Z,55.26
2023-08-26T16:12:51.377Z,55.00
2023-08-26T16:15:18.608Z,54.63
2023-08-26T16:17:45.441Z,54.17
2023-08-26T16:20:12.273Z,54.84
2023-08-26T16:22:39.029Z,56.26
2023-08-26T16:25:06.189Z,55.29
2023-08-26T16:27:34.937Z,55.78
2023-08-26T16:30:05.985Z,54.25
2023-08-26T16:32:33.802Z,54.84
2023-08-26T16:35:01.375Z,55.16
2023-08-26T16:37:30.222Z,60.60
2023-08-26T16:39:58.137Z,59.94
2023-08-26T16:42:25.228Z,58.37
2023-08-26T16:44:53.079Z,59.57
2023-08-26T16:47:21.376Z,61.07
2023-08-26T16:49:49.784Z,56.43
2023-08-26T16:52:16.453Z,55.89
2023-08-26T16:54:43.274Z,59.51
2023-08-26T16:57:09.945Z,60.03
2023-08-26T16:59:36.855Z,59.99
2023-08-26T17:02:03.702Z,60.24
2023-08-26T17:04:30.398Z,60.82
2023-08-26T17:06:57.118Z,58.01
2023-08-26T17:09:27.695Z,56.25
2023-08-26T17:11:56.051Z,56.42
2023-08-26T17:14:24.143Z,56.85
2023-08-26T17:16:52.125Z,59.92
2023-08-26T17:19:18.841Z,60.23
2023-08-26T17:21:45.482Z,58.60
2023-08-26T17:24:12.543Z,61.01
2023-08-26T17:26:39.219Z,58.27
2023-08-26T17:29:05.835Z,58.68
2023-08-26T17:31:32.566Z,58.50
2023-08-26T17:33:59.139Z,61.75
2023-08-26T17:36:25.823Z,62.39
2023-08-26T17:38:52.469Z,64.29
2023-08-26T17:41:19.074Z,62.26
2023-08-26T17:43:45.734Z,65.64
2023-08-26T17:46:12.805Z,65.19
2023-08-26T17:48:39.492Z,63.05
2023-08-26T17:51:06.095Z,65.87
2023-08-26T17:53:32.916Z,66.90
2023-08-26T17:55:59.668Z,67.48
2023-08-26T17:58:26.508Z,68.67
2023-08-26T18:00:53.197Z,65.11
2023-08-26T18:03:20.043Z,66.84
2023-08-26T18:05:46.664Z,67.43
2023-08-26T18:08:13.459Z,67.46
2023-08-26T18:10:40.260Z,69.35
2023-08-26T18:13:09.749Z,69.33
2023-08-26T18:15:37.526Z,67.29
2023-08-26T18:18:04.393Z,66.14
2023-08-26T18:20:31.144Z,66.69
2023-08-26T18:22:58.007Z,68.82
2023-08-26T18:25:24.909Z,69.92
2023-08-26T18:27:51.598Z,70.26
2023-08-26T18:30:18.965Z,71.02
2023-08-26T18:32:45.807Z,71.53
2023-08-26T18:35:12.671Z,71.49
2023-08-26T18:37:40.570Z,72.43
2023-08-26T18:40:08.917Z,73.75
2023-08-26T18:42:35.705Z,73.54
2023-08-26T18:45:02.666Z,73.71
2023-08-26T18:47:29.341Z,74.85
2023-08-26T18:49:55.946Z,75.37
2023-08-26T18:52:22.656Z,75.60
2023-08-26T18:54:49.273Z,75.16
2023-08-26T18:57:16.879Z,75.51
2023-08-26T18:59:43.615Z,75.71
2023-08-26T19:02:10.291Z,75.84
2023-08-26T19:04:36.897Z,75.83
2023-08-26T19:07:03.820Z,75.76
2023-08-26T19:09:32.394Z,76.29
2023-08-26T19:11:59.141Z,77.36
2023-08-26T19:14:25.741Z,77.19
2023-08-26T19:16:52.374Z,77.94
2023-08-26T19:19:19.103Z,78.84
2023-08-26T19:21:45.778Z,78.79
2023-08-26T19:24:12.391Z,78.67
2023-08-26T19:26:39.102Z,79.23
2023-08-26T19:29:05.999Z,79.80
2023-08-26T19:31:33.462Z,79.11
2023-08-26T19:34:00.117Z,79.38
2023-08-26T19:36:27.057Z,79.14
2023-08-26T19:38:53.657Z,79.04
2023-08-26T19:41:20.381Z,79.59
2023-08-26T19:43:47.373Z,80.06
2023-08-26T19:46:14.160Z,80.50
2023-08-26T19:48:54.561Z,80.94
2023-08-26T19:51:25.700Z,81.12
2023-08-26T19:53:54.285Z,82.36
2023-08-26T19:56:20.940Z,82.64
2023-08-26T19:58:47.574Z,81.99
2023-08-26T20:01:14.186Z,81.94
2023-08-26T20:03:40.982Z,81.87
2023-08-26T20:06:07.713Z,81.42
2023-08-26T20:08:34.257Z,81.31
2023-08-26T20:11:00.850Z,81.49
2023-08-26T20:13:27.519Z,82.09
2023-08-26T20:15:56.785Z,82.39
2023-08-26T20:18:24.698Z,82.51
2023-08-26T20:20:58.817Z,82.72
2023-08-26T20:23:26.905Z,83.22
2023-08-26T20:26:01.024Z,83.58
2023-08-26T20:28:28.374Z,83.91
2023-08-26T20:31:04.448Z,84.22
2023-08-26T20:33:32.741Z,84.50
2023-08-26T20:36:04.238Z,84.87
2023-08-26T20:38:31.986Z,85.45
2023-08-26T20:41:05.124Z,86.08
2023-08-26T20:43:32.415Z,86.63
2023-08-26T20:45:59.934Z,87.02
2023-08-26T20:48:27.580Z,87.30
2023-08-26T20:50:54.754Z,87.72
2023-08-26T20:53:21.578Z,88.36
2023-08-26T20:55:49.722Z,88.13
2023-08-26T20:58:16.840Z,88.12
2023-08-26T21:00:43.473Z,88.13
2023-08-26T21:03:10.921Z,88.08
2023-08-26T21:05:38.519Z,88.08
2023-08-26T21:08:06.867Z,88.39
2023-08-26T21:10:34.089Z,88.73
2023-08-26T21:13:00.944Z,88.84
2023-08-26T21:15:28.473Z,88.98
2023-08-26T21:17:55.260Z,89.12
2023-08-26T21:20:22.497Z,89.27
2023-08-26T21:22:49.405Z,89.89
2023-08-26T21:25:16.030Z,90.03
2023-08-26T21:27:42.613Z,90.13
2023-08-26T21:30:09.778Z,90.26
2023-08-26T21:32:37.944Z,90.33
2023-08-26T21:35:05.457Z,90.58
2023-08-26T21:37:36.387Z,90.69
2023-08-26T21:40:05.129Z,90.55
2023-08-26T21:42:31.874Z,90.98
2023-08-26T21:44:58.653Z,91.25
2023-08-26T21:47:25.761Z,91.19
2023-08-26T21:49:52.586Z,90.75
2023-08-26T21:52:19.365Z,91.19
2023-08-26T21:54:46.288Z,91.32
2023-08-26T21:57:12.949Z,91.53
2023-08-26T21:59:39.829Z,91.71
2023-08-26T22:02:06.488Z,91.91
2023-08-26T22:04:33.498Z,92.07
2023-08-26T22:07:00.784Z,92.15
2023-08-26T22:09:27.977Z,92.26
2023-08-26T22:11:54.830Z,92.42
2023-08-26T22:14:22.028Z,92.68
2023-08-26T22:16:48.762Z,92.88
2023-08-26T22:19:17.007Z,93.08
2023-08-26T22:21:44.225Z,93.10
2023-08-26T22:24:11.063Z,93.40
2023-08-26T22:26:37.716Z,93.35
2023-08-26T22:29:05.146Z,93.47
2023-08-26T22:31:32.008Z,93.48
2023-08-26T22:33:58.693Z,92.99
2023-08-26T22:36:25.349Z,92.97
2023-08-26T22:38:51.966Z,93.35
2023-08-26T22:41:18.642Z,93.51
2023-08-26T22:43:48.122Z,93.16
2023-08-26T22:46:14.742Z,93.14
2023-08-26T22:48:41.359Z,93.31
2023-08-26T22:51:08.020Z,93.69
2023-08-26T22:53:34.932Z,93.48
2023-08-26T22:56:06.367Z,93.51
2023-08-26T22:58:33.465Z,93.59
2023-08-26T23:01:00.349Z,93.59
2023-08-26T23:03:27.009Z,93.63
2023-08-26T23:06:02.963Z,93.94
2023-08-26T23:08:29.986Z,93.67
2023-08-26T23:10:56.794Z,94.16
2023-08-26T23:13:23.709Z,94.09
2023-08-26T23:15:50.382Z,93.63
2023-08-26T23:18:17.002Z,93.74
2023-08-26T23:20:43.695Z,93.67
2023-08-26T23:23:10.393Z,93.73
2023-08-26T23:25:36.987Z,93.95
2023-08-26T23:28:05.678Z,94.32
2023-08-26T23:30:32.290Z,94.53
2023-08-26T23:32:59.291Z,94.64
2023-08-26T23:35:26.093Z,94.61
2023-08-26T23:37:52.689Z,94.70
2023-08-26T23:40:19.256Z,94.86
2023-08-26T23:42:45.969Z,95.11
2023-08-26T23:45:12.584Z,95.15
2023-08-26T23:47:39.220Z,95.01
2023-08-26T23:50:06.270Z,94.83
2023-08-26T23:52:32.961Z,94.80
2023-08-26T23:54:59.599Z,94.90
2023-08-26T23:57:26.788Z,94.86
2023-08-26T23:59:53.368Z,94.91
